createdAt,value
2018-06-11T00:01:17.076Z,20.60
2018-06-11T00:03:45.558Z,20.60
2018-06-11T00:06:14.092Z,20.60
2018-06-11T00:08:42.606Z,20.50
2018-06-11T00:11:11.102Z,20.50
2018-06-11T00:13:39.668Z,20.50
2018-06-11T00:16:08.164Z,20.50
2018-06-11T00:18:36.702Z,20.50
2018-06-11T00:21:05.270Z,20.50
2018-06-11T00:23:33.823Z,20.40
2018-06-11T00:26:02.355Z,20.40
2018-06-11T00:28:30.900Z,20.40
2018-06-11T00:30:59.400Z,20.40
2018-06-11T00:33:28.007Z,20.40
2018-06-11T00:35:56.492Z,20.30
2018-06-11T00:38:25.036Z,20.30
2018-06-11T00:40:53.549Z,20.30
2018-06-11T00:43:22.083Z,20.30
2018-06-11T00:45:50.541Z,20.30
2018-06-11T00:48:19.075Z,20.20
2018-06-11T00:50:47.549Z,20.20
2018-06-11T00:53:16.096Z,20.20
2018-06-11T00:55:55.548Z,20.10
2018-06-11T00:58:24.065Z,20.10
2018-06-11T01:00:52.546Z,20.10
2018-06-11T01:03:21.089Z,20.10
2018-06-11T01:05:49.592Z,20.10
2018-06-11T01:08:18.096Z,20.00
2018-06-11T01:10:46.670Z,20.00
2018-06-11T01:13:15.158Z,20.00
2018-06-11T01:15:43.674Z,19.90
2018-06-11T01:18:12.171Z,19.90
2018-06-11T01:20:40.722Z,19.90
2018-06-11T01:23:09.291Z,19.90
2018-06-11T01:25:37.843Z,19.90
2018-06-11T01:28:06.344Z,19.90
2018-06-11T01:30:36.150Z,19.80
2018-06-11T01:33:04.643Z,19.90
2018-06-11T01:35:33.182Z,19.80
2018-06-11T01:38:01.699Z,19.80
2018-06-11T01:40:30.273Z,19.80
2018-06-11T01:42:58.820Z,19.80
2018-06-11T01:45:27.305Z,19.80
2018-06-11T01:47:55.853Z,19.80
2018-06-11T01:50:24.322Z,19.80
2018-06-11T01:52:52.826Z,19.80
2018-06-11T01:55:21.302Z,19.80
2018-06-11T01:57:49.860Z,19.80
2018-06-11T02:00:18.358Z,19.80
2018-06-11T02:02:46.841Z,19.80
2018-06-11T02:05:15.343Z,19.80
2018-06-11T02:07:43.850Z,19.80
2018-06-11T02:10:12.334Z,19.80
2018-06-11T02:12:40.851Z,19.80
2018-06-11T02:15:10.920Z,19.70
2018-06-11T02:17:39.421Z,19.70
2018-06-11T02:20:07.920Z,19.70
2018-06-11T02:22:36.466Z,19.70
2018-06-11T02:25:07.980Z,19.70
2018-06-11T02:27:36.514Z,19.60
2018-06-11T02:30:05.437Z,19.60
2018-06-11T02:32:33.972Z,19.60
2018-06-11T02:35:02.480Z,19.50
2018-06-11T02:37:30.962Z,19.50
2018-06-11T02:39:59.496Z,19.50
2018-06-11T02:42:28.005Z,19.50
2018-06-11T02:44:56.861Z,19.40
2018-06-11T02:47:26.557Z,19.40
2018-06-11T02:49:55.076Z,19.40
2018-06-11T02:52:23.584Z,19.40
2018-06-11T02:54:53.528Z,19.30
2018-06-11T02:57:22.056Z,19.40
2018-06-11T02:59:50.588Z,19.40
2018-06-11T03:02:19.096Z,19.40
2018-06-11T03:04:47.622Z,19.40
2018-06-11T03:07:16.138Z,19.30
2018-06-11T03:09:44.680Z,19.30
2018-06-11T03:12:13.219Z,19.40
2018-06-11T03:14:41.725Z,19.40
2018-06-11T03:19:39.640Z,19.40
2018-06-11T03:22:08.112Z,19.40
2018-06-11T03:24:36.666Z,19.40
2018-06-11T03:27:05.223Z,19.40
2018-06-11T03:29:33.744Z,19.40
2018-06-11T03:32:02.655Z,19.50
2018-06-11T03:34:31.153Z,19.50
2018-06-11T03:36:59.682Z,19.50
2018-06-11T03:39:28.187Z,19.50
2018-06-11T03:41:56.759Z,19.60
2018-06-11T03:44:25.237Z,19.60
2018-06-11T03:46:53.829Z,19.60
2018-06-11T03:49:22.368Z,19.70
2018-06-11T03:51:50.903Z,19.70
2018-06-11T03:54:19.587Z,19.80
2018-06-11T03:56:48.124Z,19.80
2018-06-11T03:59:16.603Z,19.80
2018-06-11T04:01:45.167Z,19.90
2018-06-11T04:04:13.687Z,19.90
2018-06-11T04:06:42.255Z,19.90
2018-06-11T04:09:10.752Z,19.90
2018-06-11T04:11:39.237Z,20.00
2018-06-11T04:14:07.777Z,19.90
2018-06-11T04:16:36.283Z,20.00
2018-06-11T04:19:04.800Z,20.00
2018-06-11T04:21:33.920Z,20.00
2018-06-11T04:24:03.352Z,20.10
2018-06-11T04:26:31.861Z,20.10
2018-06-11T04:29:00.395Z,20.20
2018-06-11T04:31:28.871Z,20.20
2018-06-11T04:33:57.373Z,20.20
2018-06-11T04:36:25.856Z,20.20
2018-06-11T04:38:54.389Z,20.30
2018-06-11T04:43:51.163Z,20.30
2018-06-11T04:46:19.635Z,20.30
2018-06-11T04:48:48.159Z,20.30
2018-06-11T04:51:16.659Z,20.40
2018-06-11T04:53:45.201Z,20.40
2018-06-11T04:56:13.753Z,20.40
2018-06-11T04:58:42.312Z,20.40
2018-06-11T05:01:10.797Z,20.40
2018-06-11T05:03:39.290Z,20.40
2018-06-11T05:06:07.839Z,20.50
2018-06-11T05:08:36.348Z,20.50
2018-06-11T05:11:04.932Z,20.50
2018-06-11T05:13:33.411Z,20.60
2018-06-11T05:16:02.381Z,20.60
2018-06-11T05:18:30.895Z,20.70
2018-06-11T05:20:59.445Z,20.70
2018-06-11T05:23:27.979Z,20.80
2018-06-11T05:25:56.507Z,20.80
2018-06-11T05:28:24.996Z,21.00
2018-06-11T05:30:53.511Z,21.10
2018-06-11T05:33:22.019Z,21.20
2018-06-11T05:35:50.591Z,21.30
2018-06-11T05:38:19.104Z,21.40
2018-06-11T05:40:47.697Z,21.40
2018-06-11T05:43:16.243Z,21.60
2018-06-11T05:45:44.715Z,21.70
2018-06-11T05:48:13.234Z,21.80
2018-06-11T05:50:42.210Z,21.90
2018-06-11T05:53:10.836Z,22.10
2018-06-11T05:55:39.344Z,22.10
2018-06-11T06:00:36.056Z,22.30
2018-06-11T06:03:04.589Z,22.40
2018-06-11T06:05:33.096Z,22.40
2018-06-11T06:08:01.624Z,22.50
2018-06-11T06:10:30.099Z,22.60
2018-06-11T06:12:58.670Z,22.70
2018-06-11T06:15:27.163Z,22.80
2018-06-11T06:17:55.619Z,22.90
2018-06-11T06:20:24.136Z,23.00
2018-06-11T06:22:52.657Z,23.10
2018-06-11T06:25:21.174Z,23.20
2018-06-11T06:27:49.654Z,23.30
2018-06-11T06:30:18.190Z,23.40
2018-06-11T06:32:46.692Z,23.50
2018-06-11T06:35:15.244Z,23.60
2018-06-11T06:37:43.755Z,23.60
2018-06-11T06:40:12.293Z,23.70
2018-06-11T06:42:40.795Z,23.70
2018-06-11T06:45:09.373Z,23.80
2018-06-11T06:47:37.835Z,23.90
2018-06-11T06:50:06.397Z,24.00
2018-06-11T06:52:34.915Z,24.00
2018-06-11T06:55:03.454Z,24.10
2018-06-11T06:57:31.990Z,24.30
2018-06-11T07:00:00.524Z,24.40
2018-06-11T07:02:29.002Z,24.50
2018-06-11T07:04:57.538Z,24.60
2018-06-11T07:07:26.044Z,24.70
2018-06-11T07:09:54.554Z,24.70
2018-06-11T07:12:23.099Z,24.80
2018-06-11T07:14:51.623Z,24.90
2018-06-11T07:17:20.267Z,25.00
2018-06-11T07:19:48.755Z,25.10
2018-06-11T07:22:17.272Z,25.10
2018-06-11T07:24:45.787Z,25.20
2018-06-11T07:27:14.415Z,25.30
2018-06-11T07:29:42.853Z,25.40
2018-06-11T07:32:11.363Z,25.50
2018-06-11T07:34:39.879Z,25.60
2018-06-11T07:37:08.377Z,25.70
2018-06-11T07:39:36.995Z,25.80
2018-06-11T07:42:05.604Z,25.90
2018-06-11T07:44:34.122Z,26.00
2018-06-11T07:47:02.743Z,26.10
2018-06-11T07:49:31.279Z,26.20
2018-06-11T07:51:59.771Z,26.30
2018-06-11T07:54:28.327Z,26.40
2018-06-11T07:56:56.827Z,26.50
2018-06-11T07:59:25.383Z,26.60
2018-06-11T08:01:53.856Z,26.60
2018-06-11T08:04:22.424Z,26.60
2018-06-11T08:06:50.919Z,26.70
2018-06-11T08:09:19.431Z,26.80
2018-06-11T08:11:47.982Z,26.90
2018-06-11T08:14:16.496Z,26.90
2018-06-11T08:16:44.985Z,27.10
2018-06-11T08:19:13.539Z,27.30
2018-06-11T08:21:42.039Z,27.30
2018-06-11T08:24:10.754Z,27.40
2018-06-11T08:26:39.226Z,27.60
2018-06-11T08:29:07.803Z,27.70
2018-06-11T08:31:36.322Z,27.80
2018-06-11T08:34:04.997Z,27.90
2018-06-11T08:36:33.469Z,28.10
2018-06-11T08:39:02.043Z,28.20
2018-06-11T08:43:58.762Z,28.40
2018-06-11T08:46:27.320Z,28.50
2018-06-11T08:48:55.835Z,28.70
2018-06-11T08:51:24.370Z,28.90
2018-06-11T08:53:52.910Z,28.70
2018-06-11T08:56:21.487Z,28.90
2018-06-11T08:58:50.017Z,28.90
2018-06-11T09:01:18.544Z,29.10
2018-06-11T09:03:47.885Z,29.10
2018-06-11T09:06:16.515Z,29.30
2018-06-11T09:08:45.043Z,29.40
2018-06-11T09:11:13.623Z,29.50
2018-06-11T09:13:42.171Z,29.80
2018-06-11T09:16:10.755Z,29.80
2018-06-11T09:18:39.267Z,29.50
2018-06-11T09:21:07.896Z,29.80
2018-06-11T09:23:36.943Z,29.80
2018-06-11T09:26:05.511Z,30.00
2018-06-11T09:28:34.003Z,30.20
2018-06-11T09:31:02.927Z,30.50
2018-06-11T09:33:31.465Z,30.50
2018-06-11T09:35:59.951Z,30.30
2018-06-11T09:38:28.501Z,30.40
2018-06-11T09:40:57.011Z,30.50
2018-06-11T09:43:25.560Z,30.70
2018-06-11T09:45:54.079Z,30.70
2018-06-11T09:48:22.631Z,30.70
2018-06-11T09:50:51.239Z,30.80
2018-06-11T09:53:19.803Z,30.90
2018-06-11T09:55:48.355Z,31.10
2018-06-11T09:58:16.857Z,31.30
2018-06-11T10:00:45.354Z,31.30
2018-06-11T10:03:15.312Z,31.40
2018-06-11T10:05:43.807Z,31.70
2018-06-11T10:08:12.315Z,32.00
2018-06-11T10:10:40.891Z,32.20
2018-06-11T10:13:09.409Z,32.40
2018-06-11T10:15:37.958Z,32.50
2018-06-11T10:18:06.547Z,32.20
2018-06-11T10:20:35.090Z,31.70
2018-06-11T10:23:03.611Z,31.70
2018-06-11T10:25:32.143Z,31.80
2018-06-11T10:28:00.707Z,31.90
2018-06-11T10:30:31.228Z,32.20
2018-06-11T10:33:00.086Z,32.50
2018-06-11T10:35:28.627Z,32.70
2018-06-11T10:37:57.110Z,33.00
2018-06-11T10:40:25.674Z,33.30
2018-06-11T10:42:54.185Z,33.20
2018-06-11T10:45:22.740Z,33.30
2018-06-11T10:47:51.224Z,33.50
2018-06-11T10:50:19.781Z,33.50
2018-06-11T10:52:48.308Z,33.30
2018-06-11T10:55:16.883Z,33.20
2018-06-11T10:57:45.411Z,33.10
2018-06-11T11:00:14.065Z,33.00
2018-06-11T11:02:42.661Z,32.60
2018-06-11T11:05:11.173Z,32.60
2018-06-11T11:07:39.775Z,32.20
2018-06-11T11:10:08.279Z,32.20
2018-06-11T11:15:05.017Z,32.30
2018-06-11T11:17:33.532Z,32.50
2018-06-11T11:20:02.022Z,32.30
2018-06-11T11:22:30.588Z,32.30
2018-06-11T11:24:59.119Z,32.50
2018-06-11T11:27:27.628Z,32.50
2018-06-11T11:29:56.106Z,32.60
2018-06-11T11:32:24.655Z,32.80
2018-06-11T11:34:53.218Z,33.00
2018-06-11T11:37:21.771Z,33.10
2018-06-11T11:39:50.265Z,33.40
2018-06-11T11:42:18.787Z,33.70
2018-06-11T11:44:47.327Z,33.90
2018-06-11T11:47:15.875Z,34.00
2018-06-11T11:49:44.383Z,33.60
2018-06-11T11:52:12.892Z,33.10
2018-06-11T11:54:41.458Z,32.70
2018-06-11T11:57:09.957Z,32.40
2018-06-11T11:59:40.144Z,32.30
2018-06-11T12:02:08.639Z,31.90
2018-06-11T12:04:37.220Z,31.70
2018-06-11T12:07:05.737Z,31.60
2018-06-11T12:09:34.276Z,31.40
2018-06-11T12:12:02.768Z,31.40
2018-06-11T12:14:31.297Z,31.30
2018-06-11T12:16:59.880Z,31.20
2018-06-11T12:19:28.424Z,31.10
2018-06-11T12:21:56.929Z,31.00
2018-06-11T12:24:25.503Z,31.00
2018-06-11T12:26:54.014Z,30.90
2018-06-11T12:29:22.563Z,30.80
2018-06-11T12:31:51.059Z,30.60
2018-06-11T12:34:19.551Z,30.60
2018-06-11T12:36:48.070Z,30.60
2018-06-11T12:39:16.507Z,30.60
2018-06-11T12:41:45.008Z,30.50
2018-06-11T12:44:13.479Z,30.40
2018-06-11T12:46:42.024Z,30.40
2018-06-11T12:49:10.519Z,30.40
2018-06-11T12:51:39.035Z,30.30
2018-06-11T12:54:07.529Z,30.30
2018-06-11T12:56:36.041Z,30.30
2018-06-11T12:59:04.561Z,30.20
2018-06-11T13:01:33.068Z,30.20
2018-06-11T13:04:01.550Z,30.20
2018-06-11T13:06:30.078Z,30.40
2018-06-11T13:13:03.141Z,30.90
2018-06-11T13:15:31.649Z,31.20
2018-06-11T13:18:00.174Z,31.40
2018-06-11T13:20:28.655Z,31.50
2018-06-11T13:22:57.210Z,31.80
2018-06-11T13:25:25.704Z,32.00
2018-06-11T13:27:54.198Z,32.10
2018-06-11T13:30:22.694Z,32.30
2018-06-11T13:32:51.203Z,32.40
2018-06-11T13:35:19.675Z,32.60
2018-06-11T13:37:48.235Z,32.80
2018-06-11T13:40:16.725Z,32.90
2018-06-11T13:42:45.233Z,33.00
2018-06-11T13:45:13.726Z,32.90
2018-06-11T13:47:42.248Z,32.90
2018-06-11T13:50:10.807Z,32.80
2018-06-11T13:52:39.276Z,32.90
2018-06-11T13:55:07.814Z,33.00
2018-06-11T13:57:36.361Z,33.00
2018-06-11T14:00:05.403Z,32.90
2018-06-11T14:02:33.899Z,32.80
2018-06-11T14:05:02.479Z,32.80
2018-06-11T14:07:31.004Z,32.80
2018-06-11T14:09:59.505Z,32.80
2018-06-11T14:12:28.023Z,32.90
2018-06-11T14:14:56.567Z,32.80
2018-06-11T14:17:25.055Z,32.80
2018-06-11T14:19:53.562Z,32.60
2018-06-11T14:22:22.059Z,32.50
2018-06-11T14:24:50.623Z,32.50
2018-06-11T14:27:19.280Z,32.50
2018-06-11T14:29:47.811Z,32.50
2018-06-11T14:32:16.315Z,32.60
2018-06-11T14:34:44.805Z,32.40
2018-06-11T14:37:13.338Z,32.40
2018-06-11T14:39:41.855Z,32.30
2018-06-11T14:42:10.350Z,32.30
2018-06-11T14:44:38.854Z,32.30
2018-06-11T14:49:35.522Z,32.10
2018-06-11T14:52:04.115Z,32.10
2018-06-11T14:54:32.583Z,32.00
2018-06-11T14:57:01.439Z,31.90
2018-06-11T14:59:29.920Z,31.80
2018-06-11T15:01:58.446Z,31.80
2018-06-11T15:04:26.919Z,31.70
2018-06-11T15:06:55.422Z,31.70
2018-06-11T15:09:24.059Z,31.70
2018-06-11T15:11:52.611Z,31.60
2018-06-11T15:14:21.136Z,31.50
2018-06-11T15:16:49.655Z,31.40
2018-06-11T15:19:18.209Z,31.30
2018-06-11T15:21:46.692Z,31.20
2018-06-11T15:24:15.236Z,31.20
2018-06-11T15:26:43.715Z,31.10
2018-06-11T15:29:12.251Z,31.10
2018-06-11T15:31:40.974Z,31.00
2018-06-11T15:34:09.665Z,30.90
2018-06-11T15:36:38.299Z,30.90
2018-06-11T15:39:08.305Z,30.80
2018-06-11T15:44:05.307Z,30.60
2018-06-11T15:46:34.006Z,30.60
2018-06-11T15:49:02.760Z,30.60
2018-06-11T15:51:31.364Z,30.40
2018-06-11T15:53:59.956Z,30.30
2018-06-11T15:56:28.662Z,30.20
2018-06-11T15:58:57.342Z,30.10
2018-06-11T16:01:26.067Z,30.00
2018-06-11T16:03:54.709Z,30.00
2018-06-11T16:06:23.380Z,29.90
2018-06-11T16:08:52.141Z,29.90
2018-06-11T16:11:20.758Z,29.80
2018-06-11T16:13:49.298Z,29.80
2018-06-11T16:16:18.021Z,29.70
2018-06-11T16:18:46.690Z,29.70
2018-06-11T16:21:15.386Z,29.70
2018-06-11T16:23:44.084Z,29.60
2018-06-11T16:26:12.772Z,29.60
2018-06-11T16:28:41.403Z,29.50
2018-06-11T16:31:11.021Z,29.50
2018-06-11T16:33:39.710Z,29.50
2018-06-11T16:36:08.394Z,29.50
2018-06-11T16:38:37.026Z,29.40
2018-06-11T16:41:05.762Z,29.40
2018-06-11T16:43:34.404Z,29.30
2018-06-11T16:46:03.106Z,29.30
2018-06-11T16:48:31.746Z,29.20
2018-06-11T16:51:00.359Z,29.20
2018-06-11T16:53:29.075Z,29.20
2018-06-11T16:55:57.704Z,29.20
2018-06-11T16:58:26.336Z,29.10
2018-06-11T17:00:55.092Z,29.10
2018-06-11T17:03:23.784Z,29.00
2018-06-11T17:05:52.441Z,29.00
2018-06-11T17:08:21.354Z,29.00
2018-06-11T17:10:50.055Z,28.90
2018-06-11T17:13:18.848Z,28.90
2018-06-11T17:15:47.556Z,28.80
2018-06-11T17:20:44.661Z,28.70
2018-06-11T17:23:13.446Z,28.70
2018-06-11T17:25:42.172Z,28.60
2018-06-11T17:28:11.024Z,28.50
2018-06-11T17:30:39.882Z,28.50
2018-06-11T17:33:08.688Z,28.50
2018-06-11T17:35:37.462Z,28.40
2018-06-11T17:38:06.140Z,28.30
2018-06-11T17:40:35.104Z,28.30
2018-06-11T17:43:03.705Z,28.20
2018-06-11T17:45:32.492Z,28.20
2018-06-11T17:48:01.110Z,28.10
2018-06-11T17:52:58.220Z,28.10
2018-06-11T17:55:26.996Z,28.00
2018-06-11T17:57:55.730Z,27.90
2018-06-11T18:00:24.376Z,27.90
2018-06-11T18:02:52.978Z,27.80
2018-06-11T18:05:23.669Z,27.80
2018-06-11T18:07:52.756Z,27.70
2018-06-11T18:10:21.484Z,27.60
2018-06-11T18:12:53.140Z,27.50
2018-06-11T18:15:22.030Z,27.50
2018-06-11T18:17:50.829Z,27.50
2018-06-11T18:20:19.548Z,27.40
2018-06-11T18:22:48.236Z,27.30
2018-06-11T18:25:16.850Z,27.20
2018-06-11T18:27:45.430Z,27.20
2018-06-11T18:30:13.972Z,27.10
2018-06-11T18:32:42.580Z,27.10
2018-06-11T18:37:39.354Z,26.90
2018-06-11T18:40:07.924Z,26.90
2018-06-11T18:42:36.488Z,26.80
2018-06-11T18:45:05.156Z,26.80
2018-06-11T18:47:33.720Z,26.80
2018-06-11T18:50:02.250Z,26.70
2018-06-11T18:52:30.769Z,26.70
2018-06-11T18:54:59.269Z,26.60
2018-06-11T18:57:28.581Z,26.50
2018-06-11T18:59:57.072Z,26.50
2018-06-11T19:02:25.627Z,26.50
2018-06-11T19:04:54.238Z,26.40
2018-06-11T19:07:22.793Z,26.40
2018-06-11T19:09:51.336Z,26.30
2018-06-11T19:12:19.942Z,26.30
2018-06-11T19:14:48.435Z,26.20
2018-06-11T19:17:16.927Z,26.20
2018-06-11T19:19:45.467Z,26.10
2018-06-11T19:22:13.958Z,26.10
2018-06-11T19:24:42.602Z,26.00
2018-06-11T19:27:11.119Z,26.00
2018-06-11T19:29:39.753Z,26.00
2018-06-11T19:32:08.238Z,25.90
2018-06-11T19:34:36.792Z,25.90
2018-06-11T19:37:05.340Z,25.90
2018-06-11T19:39:33.978Z,25.80
2018-06-11T19:42:02.502Z,25.80
2018-06-11T19:44:31.077Z,25.80
2018-06-11T19:46:59.586Z,25.80
2018-06-11T19:49:28.108Z,25.70
2018-06-11T19:51:56.648Z,25.70
2018-06-11T19:54:25.162Z,25.70
2018-06-11T19:56:53.696Z,25.70
2018-06-11T19:59:22.185Z,25.70
2018-06-11T20:01:50.675Z,25.70
2018-06-11T20:04:19.179Z,25.60
2018-06-11T20:06:47.728Z,25.70
2018-06-11T20:09:16.274Z,25.60
2018-06-11T20:14:13.141Z,25.60
2018-06-11T20:16:41.704Z,25.60
2018-06-11T20:19:10.271Z,25.60
2018-06-11T20:21:38.828Z,25.60
2018-06-11T20:24:07.368Z,25.60
2018-06-11T20:26:35.897Z,25.60
2018-06-11T20:29:04.492Z,25.60
2018-06-11T20:31:33.040Z,25.60
2018-06-11T20:34:05.534Z,25.60
2018-06-11T20:39:02.302Z,25.60
2018-06-11T20:41:30.871Z,25.50
2018-06-11T20:43:59.884Z,25.50
2018-06-11T20:46:28.561Z,25.50
2018-06-11T20:48:57.154Z,25.40
2018-06-11T20:51:25.718Z,25.40
2018-06-11T20:53:54.347Z,25.40
2018-06-11T20:56:25.286Z,25.30
2018-06-11T20:58:53.896Z,25.30
2018-06-11T21:01:22.393Z,25.30
2018-06-11T21:03:50.972Z,25.30
2018-06-11T21:06:19.464Z,25.20
2018-06-11T21:08:47.948Z,25.20
2018-06-11T21:11:16.503Z,25.30
2018-06-11T21:13:45.060Z,25.20
2018-06-11T21:16:13.633Z,25.30
2018-06-11T21:18:42.250Z,25.20
2018-06-11T21:21:10.783Z,25.20
2018-06-11T21:23:39.403Z,25.20
2018-06-11T21:26:07.903Z,25.20
2018-06-11T21:28:36.483Z,25.20
2018-06-11T21:31:04.982Z,25.20
2018-06-11T21:33:33.519Z,25.20
2018-06-11T21:36:02.080Z,25.10
2018-06-11T21:38:30.619Z,25.10
2018-06-11T21:40:59.188Z,25.10
2018-06-11T21:43:27.703Z,25.10
2018-06-11T21:45:56.268Z,25.10
2018-06-11T21:48:24.760Z,25.10
2018-06-11T21:50:53.369Z,25.10
2018-06-11T21:53:21.905Z,25.10
2018-06-11T21:55:50.451Z,25.10
2018-06-11T21:58:18.982Z,25.10
2018-06-11T22:00:47.574Z,25.10
2018-06-11T22:03:16.118Z,25.10
2018-06-11T22:05:44.613Z,25.10
2018-06-11T22:08:13.119Z,25.10
2018-06-11T22:10:41.658Z,25.10
2018-06-11T22:13:10.888Z,25.10
2018-06-11T22:15:39.396Z,25.10
2018-06-11T22:18:07.930Z,25.00
2018-06-11T22:20:36.454Z,25.10
2018-06-11T22:23:05.039Z,25.10
2018-06-11T22:25:33.583Z,25.10
2018-06-11T22:28:02.084Z,25.10
2018-06-11T22:30:30.593Z,25.10
2018-06-11T22:32:59.106Z,25.00
2018-06-11T22:35:27.579Z,25.00
2018-06-11T22:37:56.117Z,25.00
2018-06-11T22:40:24.622Z,25.00
2018-06-11T22:42:53.162Z,25.00
2018-06-11T22:45:21.757Z,25.00
2018-06-11T22:47:50.257Z,24.90
2018-06-11T22:50:18.831Z,24.90
2018-06-11T22:52:47.278Z,24.90
2018-06-11T22:55:15.838Z,24.90
2018-06-11T22:57:44.405Z,24.80
2018-06-11T23:00:13.735Z,24.80
2018-06-11T23:02:42.239Z,24.70
2018-06-11T23:05:10.772Z,24.70
2018-06-11T23:07:39.293Z,24.70
2018-06-11T23:10:07.443Z,24.70
2018-06-11T23:12:35.966Z,24.70
2018-06-11T23:15:04.566Z,24.60
2018-06-11T23:17:33.111Z,24.60
2018-06-11T23:22:30.439Z,24.50
2018-06-11T23:24:58.991Z,24.40
2018-06-11T23:27:27.510Z,24.40
2018-06-11T23:29:56.035Z,24.40
2018-06-11T23:32:24.545Z,24.30
2018-06-11T23:34:53.043Z,24.30
2018-06-11T23:37:23.608Z,24.30
2018-06-11T23:39:52.124Z,24.30
2018-06-11T23:42:23.167Z,24.20
2018-06-11T23:44:52.302Z,24.20
2018-06-11T23:47:20.915Z,24.20
2018-06-11T23:49:49.486Z,24.20
2018-06-11T23:52:18.052Z,24.20
2018-06-11T23:54:46.508Z,24.10
2018-06-11T23:57:15.084Z,24.10
2018-06-11T23:59:43.611Z,24.10
